Time;durP1;ratioP1;P1;durP2;ratioP2;P2;SDS_P1;SDS_P2;PMS_P1;PMS_P2;Temp;Humidity;BMP_temperature;BMP_pressure;BME280_temperature;BME280_humidity;BME280_pressure;Samples;Min_cycle;Max_cycle;Signal;HPM_P1;HPM_P2
2024/03/19 00:00:12;;;;;;;8.53;2.67;;;;;;;;;;5092320;28;20202;-82
2024/03/19 00:02:39;;;;;;;5.23;1.93;;;;;;;;;;5092192;28;20279;-82
2024/03/19 00:05:07;;;;;;;8.07;2.70;;;;;;;;;;5092346;28;20196;-81
2024/03/19 00:07:34;;;;;;;7.00;2.47;;;;;;;;;;5092107;28;20252;-81
2024/03/19 00:10:03;;;;;;;7.57;2.60;;;;;;;;;;5091967;28;20725;-82
2024/03/19 00:12:32;;;;;;;6.17;2.67;;;;;;;;;;5095620;28;20734;-83
2024/03/19 00:15:00;;;;;;;9.90;3.23;;;;;;;;;;5112426;28;20251;-82
2024/03/19 00:17:27;;;;;;;7.83;2.63;;;;;;;;;;5111924;28;20200;-80
2024/03/19 00:19:54;;;;;;;6.70;2.30;;;;;;;;;;5112669;28;20189;-82
2024/03/19 00:22:22;;;;;;;7.70;2.53;;;;;;;;;;5112471;28;20252;-82
2024/03/19 00:24:49;;;;;;;5.90;2.43;;;;;;;;;;5112232;28;20241;-82
2024/03/19 00:27:18;;;;;;;5.57;2.10;;;;;;;;;;5112393;28;20197;-81
2024/03/19 00:29:45;;;;;;;12.10;2.93;;;;;;;;;;5112463;28;20290;-81
2024/03/19 00:32:13;;;;;;;7.83;2.60;;;;;;;;;;5111805;28;20262;-81
2024/03/19 00:34:40;;;;;;;4.90;2.20;;;;;;;;;;5112727;28;20209;-82
2024/03/19 00:37:07;;;;;;;8.00;2.40;;;;;;;;;;5112344;28;20194;-81
2024/03/19 00:39:35;;;;;;;6.80;2.50;;;;;;;;;;5112070;28;20194;-82
2024/03/19 00:42:02;;;;;;;7.90;2.70;;;;;;;;;;5111997;28;20759;-82
2024/03/19 00:44:30;;;;;;;9.47;2.63;;;;;;;;;;5111513;28;20243;-82
2024/03/19 00:46:59;;;;;;;7.27;2.50;;;;;;;;;;5112482;28;20278;-81
2024/03/19 00:49:27;;;;;;;5.93;2.20;;;;;;;;;;5112185;28;20194;-81
2024/03/19 00:51:54;;;;;;;3.13;2.07;;;;;;;;;;5111543;28;20198;-81
2024/03/19 00:54:21;;;;;;;7.17;2.53;;;;;;;;;;5112119;28;20202;-81
2024/03/19 00:56:49;;;;;;;5.83;2.23;;;;;;;;;;5111909;28;20197;-82
2024/03/19 00:59:16;;;;;;;6.60;2.30;;;;;;;;;;5111309;28;20281;-82
2024/03/19 01:01:45;;;;;;;5.23;1.87;;;;;;;;;;5111736;28;20639;-80
2024/03/19 01:04:13;;;;;;;6.17;2.10;;;;;;;;;;5112160;28;20196;-82
2024/03/19 01:06:40;;;;;;;6.33;2.43;;;;;;;;;;5111406;28;20666;-83
2024/03/19 01:09:12;;;;;;;5.60;2.33;;;;;;;;;;5111602;28;20225;-82
2024/03/19 01:11:39;;;;;;;10.83;2.33;;;;;;;;;;5111940;28;20210;-82
2024/03/19 01:14:06;;;;;;;8.30;2.40;;;;;;;;;;5110844;28;21203;-82
2024/03/19 01:16:34;;;;;;;7.23;2.33;;;;;;;;;;5111746;28;20284;-81
2024/03/19 01:19:02;;;;;;;8.37;2.50;;;;;;;;;;5111644;28;20549;-82
2024/03/19 01:21:29;;;;;;;4.80;2.10;;;;;;;;;;5111719;28;20221;-82
2024/03/19 01:23:56;;;;;;;8.07;2.00;;;;;;;;;;5111424;28;20236;-81
2024/03/19 01:26:24;;;;;;;5.27;2.10;;;;;;;;;;5111626;28;20194;-82
2024/03/19 01:28:51;;;;;;;4.77;2.10;;;;;;;;;;5111206;28;20198;-81
2024/03/19 01:31:18;;;;;;;8.33;2.10;;;;;;;;;;5111077;28;20229;-82
2024/03/19 01:33:45;;;;;;;6.80;2.10;;;;;;;;;;5111575;28;20213;-81
2024/03/19 01:36:14;;;;;;;5.73;2.03;;;;;;;;;;5111662;28;20190;-82
2024/03/19 01:38:41;;;;;;;5.50;1.70;;;;;;;;;;5111555;28;20190;-83
2024/03/19 01:41:09;;;;;;;4.67;1.40;;;;;;;;;;5111588;28;20221;-82
2024/03/19 01:43:36;;;;;;;5.73;1.50;;;;;;;;;;5111208;28;20290;-82
2024/03/19 01:46:15;;;;;;;6.93;1.50;;;;;;;;;;5111197;28;20233;-82
2024/03/19 01:48:42;;;;;;;5.63;1.77;;;;;;;;;;5111005;28;20281;-81
2024/03/19 01:51:10;;;;;;;5.77;1.37;;;;;;;;;;5111535;28;20205;-83
2024/03/19 01:53:38;;;;;;;5.47;1.30;;;;;;;;;;5111489;28;20198;-82
2024/03/19 01:56:06;;;;;;;4.70;1.67;;;;;;;;;;5111310;28;20229;-82
2024/03/19 01:58:35;;;;;;;6.37;1.30;;;;;;;;;;5111107;28;20194;-81
2024/03/19 02:01:03;;;;;;;6.53;1.43;;;;;;;;;;5111509;28;20660;-82
2024/03/19 02:03:31;;;;;;;6.47;1.57;;;;;;;;;;5112780;28;20217;-82
2024/03/19 02:05:58;;;;;;;5.33;1.40;;;;;;;;;;5115085;28;20566;-81
2024/03/19 02:08:26;;;;;;;6.67;1.47;;;;;;;;;;5115036;28;20228;-83
2024/03/19 02:10:54;;;;;;;5.13;1.50;;;;;;;;;;5114867;28;20217;-82
2024/03/19 02:13:22;;;;;;;2.40;1.33;;;;;;;;;;5114710;28;20237;-81
2024/03/19 02:15:50;;;;;;;5.80;1.50;;;;;;;;;;5114932;28;20197;-81
2024/03/19 02:18:17;;;;;;;6.33;2.67;;;;;;;;;;5114877;28;20190;-82
2024/03/19 02:20:44;;;;;;;8.63;2.73;;;;;;;;;;5114623;28;20744;-82
2024/03/19 02:23:13;;;;;;;5.33;1.83;;;;;;;;;;5114639;28;20326;-82
2024/03/19 02:25:40;;;;;;;5.17;1.60;;;;;;;;;;5114968;28;20198;-82
2024/03/19 02:28:08;;;;;;;6.20;1.70;;;;;;;;;;5114504;28;20186;-82
2024/03/19 02:30:35;;;;;;;6.83;1.50;;;;;;;;;;5114634;28;20194;-82
2024/03/19 02:33:02;;;;;;;4.50;1.60;;;;;;;;;;5114501;28;20198;-81
2024/03/19 02:35:29;;;;;;;6.40;1.17;;;;;;;;;;5114593;28;20243;-82
2024/03/19 02:37:56;;;;;;;6.10;1.40;;;;;;;;;;5114243;28;20618;-82
2024/03/19 02:40:25;;;;;;;5.57;1.30;;;;;;;;;;5101334;28;20317;-81
2024/03/19 02:42:52;;;;;;;5.23;1.30;;;;;;;;;;5094053;28;20254;-81
2024/03/19 02:45:21;;;;;;;6.03;1.20;;;;;;;;;;5093859;28;20230;-81
2024/03/19 02:47:48;;;;;;;4.70;1.63;;;;;;;;;;5093923;28;20201;-81
2024/03/19 02:50:15;;;;;;;5.67;1.30;;;;;;;;;;5093733;28;20614;-80
2024/03/19 02:52:43;;;;;;;5.23;1.23;;;;;;;;;;5093635;28;20230;-82
2024/03/19 02:55:10;;;;;;;4.43;1.33;;;;;;;;;;5093464;28;20735;-81
2024/03/19 02:57:39;;;;;;;3.50;1.10;;;;;;;;;;5093901;28;20205;-81
2024/03/19 03:00:09;;;;;;;5.10;1.20;;;;;;;;;;5093118;28;20293;-81
2024/03/19 03:02:36;;;;;;;6.23;1.30;;;;;;;;;;5093395;28;20314;-82
2024/03/19 03:05:03;;;;;;;6.00;1.10;;;;;;;;;;5092940;28;20226;-82
2024/03/19 03:07:31;;;;;;;5.57;1.30;;;;;;;;;;5093348;28;20208;-81
2024/03/19 03:09:58;;;;;;;2.80;1.13;;;;;;;;;;5092795;28;20736;-81
2024/03/19 03:12:25;;;;;;;5.90;1.53;;;;;;;;;;5095590;28;20230;-81
2024/03/19 03:14:53;;;;;;;6.20;1.20;;;;;;;;;;5113868;28;20281;-81
2024/03/19 03:17:21;;;;;;;3.73;1.20;;;;;;;;;;5113422;28;20668;-81
2024/03/19 03:19:48;;;;;;;4.13;1.33;;;;;;;;;;5113637;28;20246;-81
2024/03/19 03:22:15;;;;;;;6.17;1.30;;;;;;;;;;5113500;28;20648;-81
2024/03/19 03:24:42;;;;;;;5.47;1.13;;;;;;;;;;5113062;28;20236;-81
2024/03/19 03:27:10;;;;;;;4.83;1.23;;;;;;;;;;5113177;28;20276;-81
2024/03/19 03:29:37;;;;;;;5.43;1.40;;;;;;;;;;5100723;28;20677;-81
2024/03/19 03:32:07;;;;;;;3.63;1.17;;;;;;;;;;5083450;28;20656;-81
2024/03/19 03:34:35;;;;;;;4.20;1.10;;;;;;;;;;5093151;28;20735;-82
2024/03/19 03:37:03;;;;;;;7.17;1.30;;;;;;;;;;5092963;28;20198;-83
2024/03/19 03:39:31;;;;;;;5.93;1.20;;;;;;;;;;5092622;28;20198;-82
2024/03/19 03:41:58;;;;;;;4.70;1.13;;;;;;;;;;5092860;28;20201;-83
2024/03/19 03:44:25;;;;;;;5.07;1.20;;;;;;;;;;5092752;28;20230;-81
2024/03/19 03:46:52;;;;;;;5.00;1.20;;;;;;;;;;5092410;28;20206;-82
2024/03/19 03:49:21;;;;;;;3.93;1.10;;;;;;;;;;5092573;28;20745;-81
2024/03/19 03:51:48;;;;;;;7.70;1.43;;;;;;;;;;5092820;28;20240;-82
2024/03/19 03:54:15;;;;;;;5.43;1.37;;;;;;;;;;5092242;28;20229;-82
2024/03/19 03:56:42;;;;;;;7.80;1.37;;;;;;;;;;5092487;28;20309;-81
2024/03/19 03:59:10;;;;;;;5.10;1.20;;;;;;;;;;5092442;28;20214;-82
2024/03/19 04:01:39;;;;;;;6.73;1.37;;;;;;;;;;5092428;28;20695;-82
2024/03/19 04:04:06;;;;;;;4.77;1.20;;;;;;;;;;5092339;28;20234;-82
2024/03/19 04:06:34;;;;;;;5.30;1.00;;;;;;;;;;5092596;28;20239;-82
2024/03/19 04:09:02;;;;;;;4.30;1.10;;;;;;;;;;5092063;28;20255;-82
2024/03/19 04:11:29;;;;;;;6.10;1.47;;;;;;;;;;5092268;28;20656;-81
2024/03/19 04:13:57;;;;;;;4.70;1.20;;;;;;;;;;5107502;28;20225;-82
2024/03/19 04:16:24;;;;;;;5.57;1.10;;;;;;;;;;5112362;28;20251;-82
2024/03/19 04:18:51;;;;;;;7.20;1.50;;;;;;;;;;5112784;28;20205;-82
2024/03/19 04:21:18;;;;;;;4.47;1.00;;;;;;;;;;5112399;28;20202;-81
2024/03/19 04:23:47;;;;;;;4.00;1.10;;;;;;;;;;5112114;28;20282;-82
2024/03/19 04:26:14;;;;;;;3.83;1.30;;;;;;;;;;5111686;28;20194;-82
2024/03/19 04:28:41;;;;;;;6.37;2.07;;;;;;;;;;5112060;28;20194;-82
2024/03/19 04:31:08;;;;;;;4.33;1.10;;;;;;;;;;5112467;28;20272;-81
2024/03/19 04:33:36;;;;;;;4.47;1.60;;;;;;;;;;5112169;28;20292;-82
2024/03/19 04:36:03;;;;;;;6.17;1.40;;;;;;;;;;5111734;28;20197;-82
2024/03/19 04:38:30;;;;;;;4.97;1.30;;;;;;;;;;5111999;28;20198;-82
2024/03/19 04:40:59;;;;;;;5.93;1.30;;;;;;;;;;5112255;28;20221;-82
2024/03/19 04:43:26;;;;;;;4.23;1.30;;;;;;;;;;5111828;28;20321;-81
2024/03/19 04:45:53;;;;;;;5.33;1.50;;;;;;;;;;5111774;28;20723;-80
2024/03/19 04:48:21;;;;;;;6.90;1.80;;;;;;;;;;5111945;28;20225;-82
2024/03/19 04:50:48;;;;;;;8.07;1.67;;;;;;;;;;5111679;28;20241;-82
2024/03/19 04:53:15;;;;;;;3.80;1.40;;;;;;;;;;5111580;28;20301;-82
2024/03/19 04:55:42;;;;;;;6.73;1.37;;;;;;;;;;5112121;28;20229;-82
2024/03/19 04:58:11;;;;;;;4.67;1.53;;;;;;;;;;5111495;28;20283;-82
2024/03/19 05:00:38;;;;;;;5.17;1.30;;;;;;;;;;5111224;28;20668;-82
2024/03/19 05:03:06;;;;;;;5.60;1.40;;;;;;;;;;5112024;28;20228;-82
2024/03/19 05:05:33;;;;;;;5.77;1.60;;;;;;;;;;5111204;28;20204;-82
2024/03/19 05:08:00;;;;;;;5.00;1.30;;;;;;;;;;5102484;28;20292;-82
2024/03/19 05:10:27;;;;;;;4.97;1.40;;;;;;;;;;5085947;28;20279;-82
2024/03/19 05:12:55;;;;;;;8.20;1.47;;;;;;;;;;5086947;28;20740;-82
2024/03/19 05:15:23;;;;;;;9.13;1.67;;;;;;;;;;5111229;28;20233;-82
2024/03/19 05:17:51;;;;;;;5.83;1.50;;;;;;;;;;5111655;28;20221;-82
2024/03/19 05:20:18;;;;;;;5.93;1.83;;;;;;;;;;5111302;28;20205;-83
2024/03/19 05:22:47;;;;;;;5.40;1.30;;;;;;;;;;5111781;28;20237;-82
2024/03/19 05:25:14;;;;;;;6.57;1.40;;;;;;;;;;5111721;28;20256;-82
2024/03/19 05:27:41;;;;;;;5.30;1.43;;;;;;;;;;5111753;28;20271;-82
2024/03/19 05:30:10;;;;;;;3.70;1.30;;;;;;;;;;5111380;28;20293;-82
2024/03/19 05:32:39;;;;;;;8.87;2.20;;;;;;;;;;5112004;28;20190;-82
2024/03/19 05:35:07;;;;;;;6.17;2.20;;;;;;;;;;5111083;28;20200;-82
2024/03/19 05:37:34;;;;;;;9.73;3.70;;;;;;;;;;5113359;28;20209;-82
2024/03/19 05:40:01;;;;;;;5.70;2.13;;;;;;;;;;5115556;28;20286;-82
2024/03/19 05:42:29;;;;;;;5.97;1.80;;;;;;;;;;5115241;28;20193;-83
2024/03/19 05:44:57;;;;;;;7.10;1.70;;;;;;;;;;5115451;28;20600;-82
2024/03/19 05:47:24;;;;;;;6.07;1.60;;;;;;;;;;5115374;28;20212;-82
2024/03/19 05:49:53;;;;;;;6.80;1.53;;;;;;;;;;5115385;28;20280;-82
2024/03/19 05:52:21;;;;;;;5.73;1.20;;;;;;;;;;5115113;28;20236;-82
2024/03/19 05:54:48;;;;;;;6.33;1.27;;;;;;;;;;5115245;28;20667;-81
2024/03/19 05:57:16;;;;;;;4.77;1.00;;;;;;;;;;5114839;28;20630;-82
2024/03/19 05:59:45;;;;;;;4.10;1.10;;;;;;;;;;5115413;28;20663;-82
2024/03/19 06:02:13;;;;;;;5.23;1.10;;;;;;;;;;5115357;28;20194;-83
2024/03/19 06:04:40;;;;;;;4.30;1.27;;;;;;;;;;5114467;28;20256;-81
2024/03/19 06:07:09;;;;;;;6.30;1.40;;;;;;;;;;5114707;28;20293;-82
2024/03/19 06:09:43;;;;;;;5.13;1.00;;;;;;;;;;5115668;27;20194;-81
2024/03/19 06:12:10;;;;;;;4.03;1.30;;;;;;;;;;5114891;28;20200;-81
2024/03/19 06:14:37;;;;;;;3.73;1.20;;;;;;;;;;5114792;28;20285;-81
2024/03/19 06:17:06;;;;;;;4.47;1.17;;;;;;;;;;5114561;28;20293;-80
2024/03/19 06:19:33;;;;;;;3.97;1.20;;;;;;;;;;5078490;28;20199;-80
2024/03/19 06:22:00;;;;;;;7.33;1.53;;;;;;;;;;5085729;28;20284;-81
2024/03/19 06:24:29;;;;;;;4.83;1.50;;;;;;;;;;5074155;28;20321;-80
2024/03/19 06:26:58;;;;;;;4.53;1.77;;;;;;;;;;5073852;28;20745;-79
2024/03/19 06:29:25;;;;;;;4.83;1.43;;;;;;;;;;5075802;28;20195;-81
2024/03/19 06:31:53;;;;;;;5.67;1.60;;;;;;;;;;5091377;28;20635;-80
2024/03/19 06:34:21;;;;;;;5.80;1.67;;;;;;;;;;5093597;28;20199;-78
2024/03/19 06:36:48;;;;;;;4.83;2.03;;;;;;;;;;5087169;28;20235;-80
2024/03/19 06:39:16;;;;;;;4.73;1.50;;;;;;;;;;5087980;28;20198;-79
2024/03/19 06:41:45;;;;;;;6.07;2.10;;;;;;;;;;5093894;28;20285;-81
2024/03/19 06:44:12;;;;;;;7.73;2.23;;;;;;;;;;5091368;28;20233;-81
2024/03/19 06:46:39;;;;;;;3.90;1.50;;;;;;;;;;5073854;28;20286;-79
2024/03/19 06:49:07;;;;;;;8.17;1.80;;;;;;;;;;5072284;28;20774;-80
2024/03/19 06:51:35;;;;;;;5.53;1.30;;;;;;;;;;5073801;28;20676;-80
2024/03/19 06:54:03;;;;;;;3.67;1.47;;;;;;;;;;5073483;28;20669;-80
2024/03/19 06:56:30;;;;;;;5.20;1.73;;;;;;;;;;5073687;28;20286;-80
2024/03/19 06:58:58;;;;;;;6.93;2.10;;;;;;;;;;5073620;28;20282;-79
2024/03/19 07:01:27;;;;;;;7.40;2.10;;;;;;;;;;5072899;28;20738;-79
2024/03/19 07:03:54;;;;;;;7.13;1.97;;;;;;;;;;5073088;28;20668;-79
2024/03/19 07:06:22;;;;;;;5.73;1.83;;;;;;;;;;5073361;28;20866;-80
2024/03/19 07:08:53;;;;;;;4.63;1.37;;;;;;;;;;5073573;28;20199;-80
2024/03/19 07:11:21;;;;;;;6.83;1.63;;;;;;;;;;5073917;28;20218;-79
2024/03/19 07:13:49;;;;;;;5.37;1.60;;;;;;;;;;5101808;28;20202;-80
2024/03/19 07:16:19;;;;;;;7.77;1.57;;;;;;;;;;5112385;28;20194;-78
2024/03/19 07:18:47;;;;;;;8.27;2.47;;;;;;;;;;5110659;28;20197;-79
2024/03/19 07:21:14;;;;;;;8.17;3.10;;;;;;;;;;4744630;28;10000360;-79
2024/03/19 07:23:41;;;;;;;11.30;3.87;;;;;;;;;;5089813;28;20226;-80
2024/03/19 07:26:08;;;;;;;6.67;2.50;;;;;;;;;;5089704;28;20906;-80
2024/03/19 07:28:38;;;;;;;6.90;2.30;;;;;;;;;;5089984;28;20289;-79
2024/03/19 07:31:05;;;;;;;6.57;2.23;;;;;;;;;;5092485;28;20571;-79
2024/03/19 07:33:34;;;;;;;7.50;1.87;;;;;;;;;;5093105;28;20199;-79
2024/03/19 07:36:02;;;;;;;4.37;1.50;;;;;;;;;;5092761;28;20230;-79
2024/03/19 07:38:29;;;;;;;3.67;1.80;;;;;;;;;;5092496;28;20629;-79
2024/03/19 07:40:56;;;;;;;7.87;2.07;;;;;;;;;;5089085;28;20228;-79
2024/03/19 07:43:25;;;;;;;6.23;1.60;;;;;;;;;;5090512;28;20289;-79
2024/03/19 07:45:52;;;;;;;5.37;1.63;;;;;;;;;;5089588;28;20594;-79
2024/03/19 07:48:20;;;;;;;6.40;2.17;;;;;;;;;;5092292;28;20281;-79
2024/03/19 07:50:49;;;;;;;6.10;1.50;;;;;;;;;;5089979;28;20275;-79
2024/03/19 07:53:16;;;;;;;6.00;1.50;;;;;;;;;;5092139;28;20277;-79
2024/03/19 07:55:45;;;;;;;5.60;1.33;;;;;;;;;;5091441;28;20203;-80
2024/03/19 07:58:12;;;;;;;17.20;2.10;;;;;;;;;;5090460;28;20195;-79
2024/03/19 08:00:39;;;;;;;8.00;1.87;;;;;;;;;;5091248;28;20191;-79
2024/03/19 08:03:07;;;;;;;5.90;1.50;;;;;;;;;;5092972;28;20233;-79
2024/03/19 08:05:34;;;;;;;4.00;1.30;;;;;;;;;;5090826;28;20222;-79
2024/03/19 08:08:02;;;;;;;4.77;1.30;;;;;;;;;;5092129;28;20281;-80
2024/03/19 08:10:30;;;;;;;5.87;1.67;;;;;;;;;;5091475;28;20202;-80
2024/03/19 08:12:57;;;;;;;3.93;0.90;;;;;;;;;;5096897;28;20202;-81
2024/03/19 08:15:24;;;;;;;3.10;1.17;;;;;;;;;;5106105;28;20302;-82
2024/03/19 08:17:52;;;;;;;4.80;1.37;;;;;;;;;;5088116;28;20202;-82
2024/03/19 08:20:20;;;;;;;4.57;1.60;;;;;;;;;;5088193;28;20598;-82
2024/03/19 08:22:47;;;;;;;6.33;1.30;;;;;;;;;;5088908;28;20706;-82
2024/03/19 08:25:16;;;;;;;4.53;1.10;;;;;;;;;;5088377;28;20258;-82
2024/03/19 08:27:43;;;;;;;4.97;1.10;;;;;;;;;;5087113;28;20748;-83
2024/03/19 08:30:11;;;;;;;5.73;1.57;;;;;;;;;;5088442;28;20214;-82
2024/03/19 08:32:38;;;;;;;4.57;1.10;;;;;;;;;;5090994;28;20244;-82
2024/03/19 08:35:08;;;;;;;6.47;1.50;;;;;;;;;;5090690;28;20194;-82
2024/03/19 08:37:36;;;;;;;4.73;1.10;;;;;;;;;;5091668;28;20583;-83
2024/03/19 08:40:05;;;;;;;6.47;1.37;;;;;;;;;;5092260;28;20202;-82
2024/03/19 08:42:34;;;;;;;3.37;1.00;;;;;;;;;;5090007;28;20194;-83
2024/03/19 08:45:03;;;;;;;3.37;1.03;;;;;;;;;;5090772;28;20226;-83
2024/03/19 08:47:30;;;;;;;6.40;1.30;;;;;;;;;;5091767;28;20573;-82
2024/03/19 08:49:57;;;;;;;6.50;1.93;;;;;;;;;;5091686;28;20279;-83
2024/03/19 08:52:24;;;;;;;3.77;1.40;;;;;;;;;;5087655;28;20200;-80
2024/03/19 08:54:52;;;;;;;5.53;1.20;;;;;;;;;;5091598;28;20368;-81
2024/03/19 08:57:19;;;;;;;2.73;1.17;;;;;;;;;;5091435;28;20284;-81
2024/03/19 08:59:51;;;;;;;4.60;0.90;;;;;;;;;;5085501;28;20241;-81
2024/03/19 09:02:18;;;;;;;6.87;1.40;;;;;;;;;;5077098;28;20206;-81
2024/03/19 09:04:46;;;;;;;4.07;1.20;;;;;;;;;;5083145;28;20865;-81
2024/03/19 09:07:13;;;;;;;3.73;1.27;;;;;;;;;;5077685;28;20669;-81
2024/03/19 09:09:44;;;;;;;4.88;1.15;;;;;;;;;;5081702;28;20229;-81
2024/03/19 09:12:12;;;;;;;5.13;1.20;;;;;;;;;;5084279;28;20204;-81
2024/03/19 09:14:39;;;;;;;5.10;1.50;;;;;;;;;;5090233;28;20289;-81
2024/03/19 09:17:08;;;;;;;8.50;1.73;;;;;;;;;;5075232;28;20289;-81
2024/03/19 09:19:39;;;;;;;5.78;1.20;;;;;;;;;;5087147;28;20276;-81
2024/03/19 09:22:06;;;;;;;4.05;1.00;;;;;;;;;;5077580;28;20678;-81
2024/03/19 09:24:34;;;;;;;3.90;1.00;;;;;;;;;;5087442;28;20313;-81
2024/03/19 09:27:03;;;;;;;6.57;1.25;;;;;;;;;;5077222;28;20195;-80
2024/03/19 09:29:30;;;;;;;5.55;1.27;;;;;;;;;;5082810;28;20191;-82
2024/03/19 09:31:58;;;;;;;4.18;1.30;;;;;;;;;;5082500;28;20186;-81
2024/03/19 09:34:26;;;;;;;6.93;1.25;;;;;;;;;;5091505;28;20194;-83
2024/03/19 09:36:53;;;;;;;5.18;1.17;;;;;;;;;;5091297;28;20294;-81
2024/03/19 09:39:21;;;;;;;4.70;1.27;;;;;;;;;;5091079;28;20707;-82
2024/03/19 09:41:52;;;;;;;4.47;1.27;;;;;;;;;;5091042;28;20234;-81
2024/03/19 09:44:19;;;;;;;4.63;1.17;;;;;;;;;;5091224;28;20230;-81
2024/03/19 09:46:47;;;;;;;3.55;1.20;;;;;;;;;;5091119;28;20226;-81
2024/03/19 09:49:17;;;;;;;3.85;1.45;;;;;;;;;;5091133;28;20203;-81
2024/03/19 09:51:46;;;;;;;3.30;0.90;;;;;;;;;;5090956;28;20814;-81
2024/03/19 09:54:14;;;;;;;4.18;1.00;;;;;;;;;;5090993;28;20285;-81
2024/03/19 09:56:42;;;;;;;4.18;0.98;;;;;;;;;;5090566;28;20298;-81
2024/03/19 09:59:13;;;;;;;3.70;1.30;;;;;;;;;;5091267;28;20226;-81
2024/03/19 10:01:41;;;;;;;3.45;1.20;;;;;;;;;;5091000;28;20222;-81
2024/03/19 10:04:13;;;;;;;6.70;1.23;;;;;;;;;;5091424;28;20672;-82
2024/03/19 10:06:41;;;;;;;3.85;1.55;;;;;;;;;;5091200;28;20321;-81
2024/03/19 10:09:09;;;;;;;3.75;1.10;;;;;;;;;;5091251;28;20237;-82
2024/03/19 10:11:37;;;;;;;3.42;0.90;;;;;;;;;;5090667;28;20226;-81
2024/03/19 10:14:04;;;;;;;5.03;1.10;;;;;;;;;;5091071;28;20231;-81
2024/03/19 10:16:31;;;;;;;5.13;1.02;;;;;;;;;;5090972;28;20293;-82
2024/03/19 10:18:58;;;;;;;6.10;1.35;;;;;;;;;;5091286;28;20252;-82
2024/03/19 10:21:27;;;;;;;4.35;1.00;;;;;;;;;;5090966;28;20304;-81
2024/03/19 10:23:54;;;;;;;5.47;1.10;;;;;;;;;;5091167;28;20238;-82
2024/03/19 10:26:23;;;;;;;3.05;0.93;;;;;;;;;;5093945;28;20317;-83
2024/03/19 10:28:50;;;;;;;4.07;1.15;;;;;;;;;;5092739;28;20232;-80
2024/03/19 10:31:16;;;;;;;3.88;0.95;;;;;;;;;;5090969;28;20202;-81
2024/03/19 10:33:45;;;;;;;5.15;1.30;;;;;;;;;;5090707;28;20199;-82
2024/03/19 10:36:18;;;;;;;4.45;1.45;;;;;;;;;;5091233;28;20225;-81
2024/03/19 10:38:45;;;;;;;5.10;1.23;;;;;;;;;;5091214;28;20289;-81
2024/03/19 10:41:12;;;;;;;5.38;1.30;;;;;;;;;;5091661;28;20230;-81
2024/03/19 10:43:43;;;;;;;5.55;1.27;;;;;;;;;;5091321;28;20198;-81
2024/03/19 10:46:12;;;;;;;4.00;1.15;;;;;;;;;;5090670;28;20230;-81
2024/03/19 10:48:39;;;;;;;4.07;1.10;;;;;;;;;;5090625;28;20224;-82
2024/03/19 10:51:07;;;;;;;4.80;1.10;;;;;;;;;;5090900;28;20965;-83
2024/03/19 10:53:35;;;;;;;4.82;1.58;;;;;;;;;;5090109;28;20199;-84
2024/03/19 10:56:04;;;;;;;4.88;1.42;;;;;;;;;;5090633;28;20233;-81
2024/03/19 10:58:32;;;;;;;6.45;1.20;;;;;;;;;;5090649;28;20297;-81
2024/03/19 11:01:02;;;;;;;5.35;1.33;;;;;;;;;;5091083;28;20282;-80
2024/03/19 11:03:29;;;;;;;2.90;1.20;;;;;;;;;;5090484;28;20229;-81
2024/03/19 11:05:57;;;;;;;2.10;1.00;;;;;;;;;;5089620;28;20288;-81
2024/03/19 11:08:25;;;;;;;3.58;1.00;;;;;;;;;;5089924;28;20199;-80
2024/03/19 11:10:52;;;;;;;3.33;1.10;;;;;;;;;;5090509;28;20298;-82
2024/03/19 11:13:21;;;;;;;3.22;0.90;;;;;;;;;;4739045;28;9999795;-81
2024/03/19 11:15:49;;;;;;;3.22;1.27;;;;;;;;;;5090305;28;20643;-82
2024/03/19 11:18:23;;;;;;;4.63;1.40;;;;;;;;;;5089969;28;20217;-82
2024/03/19 11:20:52;;;;;;;2.88;1.13;;;;;;;;;;5090344;28;20198;-83
2024/03/19 11:23:22;;;;;;;5.20;1.75;;;;;;;;;;5089433;28;20237;-82
2024/03/19 11:25:50;;;;;;;4.57;1.10;;;;;;;;;;5089703;28;20754;-80
2024/03/19 11:28:21;;;;;;;4.47;1.30;;;;;;;;;;5090185;28;20202;-81
2024/03/19 11:30:49;;;;;;;4.75;1.38;;;;;;;;;;5090252;28;20209;-81
2024/03/19 11:33:16;;;;;;;4.43;1.20;;;;;;;;;;5090080;28;20286;-80
2024/03/19 11:35:47;;;;;;;3.38;1.30;;;;;;;;;;5089563;28;20306;-82
2024/03/19 11:38:15;;;;;;;4.00;1.35;;;;;;;;;;5089578;28;20422;-81
2024/03/19 11:40:43;;;;;;;3.80;1.30;;;;;;;;;;5089808;28;20195;-81
2024/03/19 11:43:12;;;;;;;3.97;1.42;;;;;;;;;;5089744;28;20198;-81
2024/03/19 11:45:40;;;;;;;3.88;1.13;;;;;;;;;;5089444;28;20283;-82
2024/03/19 11:48:08;;;;;;;3.63;0.93;;;;;;;;;;5089505;28;20576;-82
2024/03/19 11:50:35;;;;;;;3.78;1.50;;;;;;;;;;5089369;28;20195;-81
2024/03/19 11:53:04;;;;;;;4.35;1.35;;;;;;;;;;5088765;28;20251;-79
2024/03/19 11:55:31;;;;;;;4.82;1.38;;;;;;;;;;5089428;28;20652;-79
2024/03/19 11:57:58;;;;;;;3.53;1.48;;;;;;;;;;5089791;28;20233;-81
2024/03/19 12:00:25;;;;;;;6.68;1.70;;;;;;;;;;5089490;28;20256;-81
2024/03/19 12:02:53;;;;;;;4.40;1.40;;;;;;;;;;5089413;28;20747;-82
2024/03/19 12:05:24;;;;;;;5.78;1.23;;;;;;;;;;5088417;28;20202;-81
2024/03/19 12:07:52;;;;;;;4.97;1.60;;;;;;;;;;5089722;28;20206;-82
2024/03/19 12:10:26;;;;;;;4.47;1.65;;;;;;;;;;5092278;28;20275;-82
2024/03/19 12:12:53;;;;;;;5.18;1.48;;;;;;;;;;5099418;28;20197;-82
2024/03/19 12:15:20;;;;;;;3.40;1.15;;;;;;;;;;5102915;28;20289;-82
2024/03/19 12:17:48;;;;;;;4.38;1.20;;;;;;;;;;5092259;28;20197;-81
2024/03/19 12:20:15;;;;;;;3.15;1.15;;;;;;;;;;5092006;28;20226;-82
2024/03/19 12:22:43;;;;;;;2.90;1.20;;;;;;;;;;5092064;28;20230;-82
2024/03/19 12:25:11;;;;;;;2.50;1.08;;;;;;;;;;5091575;28;20236;-82
2024/03/19 12:27:41;;;;;;;3.60;1.50;;;;;;;;;;5090740;28;20307;-82
2024/03/19 12:30:11;;;;;;;2.85;1.30;;;;;;;;;;5091772;28;20251;-82
2024/03/19 12:32:47;;;;;;;2.92;1.40;;;;;;;;;;5091784;28;20198;-82
2024/03/19 12:35:14;;;;;;;5.18;1.45;;;;;;;;;;5090689;28;20198;-81
2024/03/19 12:37:42;;;;;;;3.22;1.20;;;;;;;;;;5092085;28;20202;-80
2024/03/19 12:40:11;;;;;;;2.90;0.90;;;;;;;;;;5091975;28;20643;-81
2024/03/19 12:42:39;;;;;;;4.10;1.05;;;;;;;;;;5091274;28;20281;-82
2024/03/19 12:45:08;;;;;;;3.53;1.17;;;;;;;;;;5091297;28;20289;-82
2024/03/19 12:47:35;;;;;;;3.42;1.20;;;;;;;;;;5090078;28;20316;-83
2024/03/19 12:50:03;;;;;;;7.60;1.85;;;;;;;;;;5088602;28;20234;-81
2024/03/19 12:52:30;;;;;;;5.55;1.45;;;;;;;;;;5087855;28;20195;-81
2024/03/19 12:54:58;;;;;;;3.78;1.33;;;;;;;;;;5091209;28;20206;-82
2024/03/19 12:57:25;;;;;;;4.65;1.30;;;;;;;;;;5091096;28;20198;-82
2024/03/19 12:59:53;;;;;;;2.70;0.93;;;;;;;;;;5091622;28;20206;-82
2024/03/19 13:02:21;;;;;;;3.72;1.20;;;;;;;;;;5091578;28;20206;-82
2024/03/19 13:04:48;;;;;;;2.10;1.00;;;;;;;;;;5091089;28;20755;-81
2024/03/19 13:07:15;;;;;;;4.00;1.10;;;;;;;;;;5091025;28;20253;-81
2024/03/19 13:09:43;;;;;;;5.32;1.33;;;;;;;;;;5091056;28;20226;-83
2024/03/19 13:12:10;;;;;;;3.42;1.42;;;;;;;;;;5090593;28;20277;-82
2024/03/19 13:14:37;;;;;;;4.60;1.25;;;;;;;;;;5090747;28;20279;-82
2024/03/19 13:17:05;;;;;;;4.85;1.35;;;;;;;;;;5090856;28;20658;-88
2024/03/19 13:19:33;;;;;;;3.05;1.20;;;;;;;;;;5090115;28;20512;-83
2024/03/19 13:22:00;;;;;;;4.55;1.33;;;;;;;;;;5090938;28;20230;-82
2024/03/19 13:24:29;;;;;;;2.25;1.20;;;;;;;;;;5091062;28;20258;-84
2024/03/19 13:26:56;;;;;;;2.47;0.93;;;;;;;;;;5091681;28;20226;-83
2024/03/19 13:29:23;;;;;;;5.40;1.17;;;;;;;;;;5091357;28;20229;-82
2024/03/19 13:31:51;;;;;;;4.20;1.00;;;;;;;;;;5090880;28;20228;-83
2024/03/19 13:34:18;;;;;;;4.72;1.17;;;;;;;;;;5089965;28;20729;-81
2024/03/19 13:36:46;;;;;;;5.15;1.50;;;;;;;;;;5091106;28;20236;-83
2024/03/19 13:39:14;;;;;;;4.25;1.50;;;;;;;;;;5091670;28;20285;-83
2024/03/19 13:41:41;;;;;;;4.60;1.40;;;;;;;;;;5090731;28;20631;-82
2024/03/19 13:44:08;;;;;;;3.53;1.70;;;;;;;;;;5090914;28;20233;-82
2024/03/19 13:46:35;;;;;;;3.45;1.20;;;;;;;;;;5091005;28;20317;-82
2024/03/19 13:49:02;;;;;;;4.35;1.40;;;;;;;;;;5091074;28;20285;-83
2024/03/19 13:51:30;;;;;;;3.08;1.38;;;;;;;;;;5091323;28;20241;-83
2024/03/19 13:53:59;;;;;;;3.05;1.35;;;;;;;;;;5091120;28;20225;-83
2024/03/19 13:56:26;;;;;;;3.85;1.50;;;;;;;;;;5091032;28;20750;-83
2024/03/19 13:58:52;;;;;;;4.60;1.50;;;;;;;;;;5092453;28;20225;-83
2024/03/19 14:01:19;;;;;;;5.70;1.40;;;;;;;;;;5095180;28;20202;-83
2024/03/19 14:03:48;;;;;;;4.00;1.10;;;;;;;;;;5094096;28;20290;-83
2024/03/19 14:06:15;;;;;;;4.00;1.40;;;;;;;;;;5094865;28;20688;-84
2024/03/19 14:08:42;;;;;;;3.55;1.25;;;;;;;;;;5094081;28;20233;-83
2024/03/19 14:11:15;;;;;;;4.28;1.52;;;;;;;;;;5094526;28;20252;-83
2024/03/19 14:13:42;;;;;;;3.00;1.10;;;;;;;;;;5094779;28;20225;-83
2024/03/19 14:16:10;;;;;;;2.83;1.20;;;;;;;;;;5094276;28;20194;-84
2024/03/19 14:18:39;;;;;;;5.68;1.95;;;;;;;;;;5093904;28;20278;-82
2024/03/19 14:21:07;;;;;;;6.10;1.50;;;;;;;;;;4738986;28;10000159;-81
2024/03/19 14:23:34;;;;;;;4.47;1.30;;;;;;;;;;5091142;28;20719;-80
2024/03/19 14:26:02;;;;;;;3.72;1.50;;;;;;;;;;5091148;28;20194;-81
2024/03/19 14:28:31;;;;;;;3.55;1.40;;;;;;;;;;5091182;28;20230;-81
2024/03/19 14:31:01;;;;;;;3.63;1.40;;;;;;;;;;5090120;28;20226;-82
2024/03/19 14:33:30;;;;;;;3.35;1.48;;;;;;;;;;5091083;28;20408;-81
2024/03/19 14:35:57;;;;;;;3.65;1.48;;;;;;;;;;5089999;28;20251;-82
2024/03/19 14:38:25;;;;;;;4.95;1.60;;;;;;;;;;5090857;28;20228;-81
2024/03/19 14:40:52;;;;;;;4.03;1.48;;;;;;;;;;5090982;28;20229;-82
2024/03/19 14:43:19;;;;;;;4.13;1.60;;;;;;;;;;5089584;28;20226;-82
2024/03/19 14:45:48;;;;;;;4.43;1.50;;;;;;;;;;5090709;28;20222;-82